»·PEaware :: FDX258 KRNO-KPHX

FDX258 :: KRNO-KPHX

FLIGHT INFORMATION

Flight Status: Arrived
Operator:
Federal Express
More flights by this operator :: More flights under this callsign
Pilot: Brad M. (22842)
Aircraft: Unknown
(B77F)
More flights by this aircraft type
Origin: KRNO Reno/Tahoe Intl
United States
Destination: KPHX Phoenix Sky Harbor Intl
United States
More flights between these airports :: More routes between these airports
Route: PVINE3 PVINE HIWAA PESKE LIDAT J92 BLD PRFUM WOTRO BRUSR1
File this flight plan on PilotEdge
Remarks:
Altitude:
(Current/Filed)
35,000ft
Speed:
(Current/Filed)
400kts
Departed: 07-May-19 02:47 PM
Arrived: 07-May-19 04:06 PM
Distance/Time
Traveled:
521nm/1:19
Distance/Time
To Go:
Arrived

Flight Plot

Page will automatically refresh every two minutes.

Flight plan parsing failed; only flown route is shown


Map Options




Map Legend


Flown Route
Filed Route
Departure Airport
Arrival Airport
Navaid (VOR, NDB)
Fix

Horizontal Profiles

Position Reports

Time Latitude Longitude Heading Altitude Ground
Speed
07-May-19 14:08 39.509678 -119.774076 323 4428ft 0kts
07-May-19 14:09 39.509678 -119.774076 323 4428ft 0kts
07-May-19 14:10 39.509678 -119.774076 323 4428ft 0kts
07-May-19 14:11 39.509678 -119.774076 323 4428ft 0kts
07-May-19 14:12 39.509678 -119.774076 323 4428ft 0kts
07-May-19 14:13 39.509678 -119.774076 323 4428ft 0kts
07-May-19 14:14 39.509678 -119.774076 323 4428ft 0kts
07-May-19 14:15 39.509678 -119.774076 323 4428ft 0kts
07-May-19 14:16 39.509678 -119.774076 323 4428ft 0kts
07-May-19 14:17 39.509678 -119.774076 323 4428ft 0kts
07-May-19 14:18 39.509678 -119.774076 323 4428ft 0kts
07-May-19 14:19 39.509678 -119.774076 323 4428ft 0kts
07-May-19 14:20 39.509678 -119.774076 323 4428ft 0kts
07-May-19 14:21 39.509678 -119.774076 323 4428ft 0kts
07-May-19 14:22 39.509678 -119.774076 323 4428ft 0kts
07-May-19 14:23 39.509678 -119.774076 323 4428ft 0kts
07-May-19 14:24 39.509678 -119.774076 323 4428ft 0kts
07-May-19 14:25 39.509678 -119.774076 323 4428ft 0kts
07-May-19 14:26 39.509678 -119.774076 323 4428ft 0kts
07-May-19 14:27 39.509678 -119.774076 323 4428ft 0kts
07-May-19 14:28 39.509678 -119.774076 323 4428ft 0kts
07-May-19 14:29 39.509678 -119.774076 323 4428ft 0kts
07-May-19 14:30 39.509272 -119.773842 12 4428ft 2kts
07-May-19 14:31 39.509132 -119.774285 93 4428ft 2kts
07-May-19 14:32 39.509134 -119.774331 93 4428ft 0kts
07-May-19 14:33 39.509134 -119.774331 93 4428ft 0kts
07-May-19 14:34 39.509134 -119.774331 93 4428ft 0kts
07-May-19 14:35 39.509134 -119.774331 93 4428ft 0kts
07-May-19 14:36 39.509097 -119.773013 89 4428ft 9kts
07-May-19 14:37 39.508952 -119.771649 135 4428ft 7kts
07-May-19 14:38 39.505881 -119.771493 180 4428ft 12kts
07-May-19 14:39 39.502829 -119.771506 180 4428ft 9kts
07-May-19 14:40 39.499931 -119.771512 180 4428ft 16kts
07-May-19 14:41 39.495947 -119.771534 180 4428ft 12kts
07-May-19 14:42 39.492900 -119.771550 181 4428ft 9kts
07-May-19 14:43 39.489163 -119.771558 179 4428ft 21kts
07-May-19 14:44 39.484420 -119.771568 180 4428ft 10kts
07-May-19 14:45 39.483800 -119.770730 92 4428ft 0kts
07-May-19 14:46 39.485415 -119.769292 0 4428ft 43kts
07-May-19 14:47 39.524888 -119.769083 0 5500ft 186kts
07-May-19 14:48 39.579436 -119.766741 1 8321ft 218kts
07-May-19 14:49 39.640601 -119.724140 38 10580ft 290kts
07-May-19 14:50 39.663119 -119.617242 110 13237ft 383kts
07-May-19 14:51 39.570987 -119.540363 166 16881ft 425kts
07-May-19 14:52 39.454776 -119.493015 158 20457ft 452kts
07-May-19 14:53 39.334933 -119.428604 157 23636ft 478kts
07-May-19 14:54 39.212622 -119.352518 150 26638ft 499kts
07-May-19 14:55 39.086676 -119.267641 150 29374ft 520kts
07-May-19 14:56 38.957840 -119.182013 149 32273ft 521kts
07-May-19 14:57 38.829234 -119.097318 148 34824ft 518kts
07-May-19 14:58 38.717010 -118.987935 128 35047ft 502kts
07-May-19 14:59 38.622480 -118.856189 128 35036ft 503kts
07-May-19 15:00 38.526269 -118.725902 128 35029ft 503kts
07-May-19 15:01 38.430460 -118.595798 128 35031ft 502kts
07-May-19 15:02 38.334407 -118.466765 129 35035ft 503kts
07-May-19 15:03 38.238010 -118.337902 129 35044ft 503kts
07-May-19 15:04 38.141357 -118.209236 129 35056ft 503kts
07-May-19 15:05 38.044583 -118.080933 129 35002ft 502kts
07-May-19 15:06 37.947874 -117.953238 129 34994ft 502kts
07-May-19 15:07 37.850864 -117.825661 130 34993ft 503kts
07-May-19 15:08 37.753729 -117.698435 130 34994ft 503kts
07-May-19 15:09 37.656513 -117.571602 130 34994ft 504kts
07-May-19 15:10 37.558819 -117.444278 131 35014ft 505kts
07-May-19 15:11 37.460522 -117.317381 131 35012ft 505kts
07-May-19 15:12 37.346866 -117.205682 145 34987ft 536kts
07-May-19 15:13 37.222210 -117.102102 145 34974ft 537kts
07-May-19 15:14 37.098272 -116.997379 145 34973ft 537kts
07-May-19 15:15 36.974325 -116.892753 145 34962ft 538kts
07-May-19 15:16 36.849942 -116.788787 144 34950ft 537kts
07-May-19 15:17 36.754533 -116.648964 114 34942ft 532kts
07-May-19 15:18 36.689835 -116.483387 114 34934ft 533kts
07-May-19 15:19 36.621402 -116.319573 114 34926ft 533kts
07-May-19 15:20 36.552647 -116.155421 115 34927ft 534kts
07-May-19 15:21 36.483343 -115.991802 115 34928ft 536kts
07-May-19 15:22 36.437080 -115.883074 115 34929ft 535kts
07-May-19 15:23 36.437080 -115.883074 115 34929ft 535kts
07-May-19 15:28 35.993204 -114.857918 116 34871ft 530kts
07-May-19 15:29 35.912464 -114.704221 120 34869ft 536kts
07-May-19 15:30 35.830962 -114.551510 120 34867ft 533kts
07-May-19 15:31 35.750300 -114.398457 119 34887ft 532kts
07-May-19 15:32 35.669320 -114.245800 119 34905ft 531kts
07-May-19 15:33 35.588250 -114.094050 120 34928ft 531kts
07-May-19 15:34 35.506831 -113.942719 120 34955ft 532kts
07-May-19 15:35 35.425001 -113.791546 120 34984ft 531kts
07-May-19 15:36 35.343455 -113.641423 120 34952ft 519kts
07-May-19 15:37 35.266269 -113.498501 120 33362ft 492kts
07-May-19 15:38 35.191557 -113.362161 120 31685ft 474kts
07-May-19 15:39 35.119652 -113.230597 120 30076ft 457kts
07-May-19 15:40 35.050268 -113.104445 121 29042ft 443kts
07-May-19 15:41 34.980978 -112.979647 121 29054ft 443kts
07-May-19 15:42 34.911812 -112.855423 121 29069ft 443kts
07-May-19 15:43 34.843343 -112.731322 121 27938ft 429kts
07-May-19 15:44 34.776705 -112.612272 122 26149ft 421kts
07-May-19 15:45 34.711085 -112.497063 127 24271ft 414kts
07-May-19 15:46 34.621002 -112.399811 141 22531ft 451kts
07-May-19 15:47 34.521000 -112.303036 140 20988ft 445kts
07-May-19 15:48 34.426566 -112.231044 162 19927ft 379kts
07-May-19 15:49 34.323196 -112.197713 169 17875ft 381kts
07-May-19 15:50 34.223340 -112.172416 169 16897ft 349kts
07-May-19 15:51 34.133316 -112.149222 169 15117ft 321kts
07-May-19 15:52 34.046521 -112.141087 185 12968ft 305kts
07-May-19 15:53 33.963224 -112.150823 186 11343ft 301kts
07-May-19 15:54 33.881340 -112.161804 191 10185ft 290kts
07-May-19 15:55 33.804517 -112.179057 191 9088ft 267kts
07-May-19 15:56 33.734997 -112.193757 191 8076ft 245kts
07-May-19 15:57 33.668120 -112.207871 191 7158ft 241kts
07-May-19 15:58 33.602531 -112.221693 191 6232ft 237kts
07-May-19 16:00 33.538937 -112.235337 191 5734ft 225kts
07-May-19 16:01 33.478564 -112.248309 191 4607ft 222kts
07-May-19 16:02 33.432722 -112.215054 113 3812ft 207kts
07-May-19 16:03 33.428892 -112.151655 92 3114ft 170kts
07-May-19 16:04 33.428900 -112.098279 91 2298ft 155kts
07-May-19 16:05 33.428764 -112.047945 91 1496ft 148kts
07-May-19 16:06 33.428803 -112.009487 89 1148ft 26kts
07-May-19 16:07 33.429913 -112.007963 296 1148ft 5kts
07-May-19 16:08 33.430962 -112.009042 358 1148ft 10kts
07-May-19 16:09 33.432138 -112.010967 269 1148ft 8kts
07-May-19 16:10 33.432131 -112.013771 269 1148ft 8kts
07-May-19 16:11 33.432833 -112.016357 271 1148ft 9kts
07-May-19 16:12 33.432848 -112.021256 269 1148ft 14kts
07-May-19 16:13 33.433076 -112.025236 327 1148ft 10kts
07-May-19 16:14 33.433569 -112.028237 269 1148ft 9kts
07-May-19 16:15 33.433558 -112.029193 270 1148ft 0kts
07-May-19 16:16 33.433558 -112.029193 270 1148ft 0kts

Navigation Log

Ident Type
Flight plan parsing failed, navigation log unavailable